Hampton Beach, New Hampshire
Current Conditions -  °F | °C
As of 12:58 AM on Saturday 25 Oct 2014 (Local Time) from KPSM Reporting Station
Broken Clouds Broken Clouds  
Wind Chill: 42°   Ceiling: 8000
Heat Index: 46°   Visibility: 10mi
Dew Point: 42°   Wind: 7mph
Humidity: 87%   Direction: 260°W
Pressure: 29.72"   Gusts: NA
Location:  42.9284°N, 70.8566°W
Report Text: KPSM 250458Z 26006KT 10SM FEW050 BKN080 BKN100 08/06 A2972 RMK AO2A SLP068 T00780057 401180075
Loading
Personal Weather Stations






























Interactive Weather Map
Tropical Storm Tracking
New forecast layout! Learn more

10-Day Weather Forecast

Advertisements
Track Severe Weather on mobile